createdAt,value
2022-10-17T00:14:05.333Z,92.2
2022-10-17T00:24:05.295Z,92.1
2022-10-17T00:34:05.352Z,92
2022-10-17T00:44:05.328Z,91.6
2022-10-17T01:04:05.408Z,91.9
2022-10-17T01:24:05.435Z,91.2
2022-10-17T01:34:05.426Z,91.1
2022-10-17T01:44:05.470Z,90.8
2022-10-17T01:54:05.470Z,90.5
2022-10-17T02:04:05.485Z,90.1
2022-10-17T02:14:05.572Z,90.1
2022-10-17T02:24:05.529Z,89.8
2022-10-17T02:34:05.549Z,89.5
2022-10-17T02:44:05.577Z,89.5
2022-10-17T03:04:05.623Z,89.4
2022-10-17T03:24:05.642Z,89.2
2022-10-17T03:34:05.638Z,88.8
2022-10-17T03:44:05.665Z,88.7
2022-10-17T03:54:05.671Z,88.9
2022-10-17T04:04:05.665Z,88.7
2022-10-17T04:14:05.709Z,88.8
2022-10-17T04:24:05.750Z,88.6
2022-10-17T04:34:05.725Z,88.5
2022-10-17T05:04:05.793Z,88.4
2022-10-17T05:14:05.810Z,88.2
2022-10-17T05:34:08.007Z,87.6
2022-10-17T05:44:05.977Z,87.3
2022-10-17T05:54:05.896Z,87.4
2022-10-17T06:04:05.882Z,87.4
2022-10-17T06:14:05.978Z,87.6
2022-10-17T06:24:05.925Z,87.1
2022-10-17T06:34:05.954Z,86.9
2022-10-17T06:44:05.954Z,85.6
2022-10-17T06:54:05.990Z,85.4
2022-10-17T07:04:05.980Z,84.9
2022-10-17T07:14:06.031Z,83.6
2022-10-17T07:44:06.093Z,82.2
2022-10-17T07:54:06.052Z,83.9
2022-10-17T08:04:06.176Z,83.2
2022-10-17T08:14:06.108Z,82.4
2022-10-17T08:34:06.162Z,81
2022-10-17T08:44:06.153Z,82.4
2022-10-17T08:54:06.178Z,82.3
2022-10-17T09:04:06.165Z,82.8
2022-10-17T09:14:06.204Z,83.3
2022-10-17T09:34:06.232Z,80.7
2022-10-17T09:44:06.228Z,78.6
2022-10-17T10:04:06.341Z,78.2
2022-10-17T10:14:06.300Z,79.2
2022-10-17T10:24:06.316Z,78.7
2022-10-17T10:44:06.376Z,79.2
2022-10-17T10:54:06.335Z,78.8
2022-10-17T11:04:06.372Z,79.2
2022-10-17T11:14:07.440Z,80.3
2022-10-17T11:24:06.962Z,80.1
2022-10-17T11:34:06.392Z,81.4
2022-10-17T11:44:06.447Z,80.7
2022-10-17T11:54:06.443Z,80.9
2022-10-17T12:04:06.540Z,81.3
2022-10-17T12:14:06.469Z,80.5
2022-10-17T12:24:06.533Z,80.5
2022-10-17T12:34:06.509Z,80.5
2022-10-17T12:44:06.548Z,80.7
2022-10-17T12:54:06.503Z,79.4
2022-10-17T13:04:06.556Z,79.5
2022-10-17T13:14:06.573Z,78.4
2022-10-17T13:24:06.595Z,77.5
2022-10-17T13:34:06.589Z,77.3
2022-10-17T13:44:06.686Z,77.8
2022-10-17T13:54:06.625Z,78.6
2022-10-17T14:04:10.269Z,79.6
2022-10-17T14:14:06.673Z,79.4
2022-10-17T14:24:06.703Z,79.4
2022-10-17T14:34:06.672Z,79.9
2022-10-17T14:44:06.728Z,79.9
2022-10-17T14:54:06.709Z,81.1
2022-10-17T15:04:06.767Z,81.9
2022-10-17T15:14:06.766Z,81.7
2022-10-17T15:24:06.802Z,81.9
2022-10-17T15:34:06.765Z,81.8
2022-10-17T15:44:06.810Z,82.3
2022-10-17T15:54:06.909Z,82.1
2022-10-17T16:04:06.870Z,82
2022-10-17T16:14:06.829Z,82.4
2022-10-17T16:24:06.901Z,82.4
2022-10-17T16:34:06.887Z,82.7
2022-10-17T16:44:06.900Z,82.5
2022-10-17T16:54:06.888Z,82.8
2022-10-17T17:04:06.922Z,83
2022-10-17T17:14:06.942Z,83.4
2022-10-17T17:24:06.972Z,83.9
2022-10-17T17:34:06.959Z,83.7
2022-10-17T17:44:07.856Z,84.3
2022-10-17T17:54:06.981Z,85.1
2022-10-17T18:04:07.043Z,86.3
2022-10-17T18:14:07.019Z,87.4
2022-10-17T18:24:07.079Z,88.5
2022-10-17T18:34:07.065Z,89.7
2022-10-17T18:44:07.099Z,90.8
2022-10-17T18:54:07.093Z,91.7
2022-10-17T19:04:07.132Z,92.5
2022-10-17T19:14:07.126Z,93.1
2022-10-17T19:34:07.197Z,94.4
2022-10-17T22:04:07.435Z,96.7
2022-10-17T22:14:07.433Z,96.9
2022-10-17T22:44:07.526Z,97.4
2022-10-17T22:54:07.504Z,97.5
2022-10-17T23:04:07.564Z,97.7
2022-10-17T23:14:07.537Z,97.8
2022-10-17T23:24:07.573Z,97.9
2022-10-17T23:34:07.567Z,98.1
2022-10-17T23:44:07.618Z,98.4
2022-10-17T23:54:07.615Z,98.7
